Latest Weather Observations for Williamtown

IDN60901

Issued at 8:31 am EST Saturday 7 May 2016 (issued every 10 minutes, with the page automatically refreshed every 10 minutes)

About weather observations | Map of Sydney area stations | Latest observations for Sydney area | Other Formats
Station Details ID: 061078 Name: WILLIAMTOWN RAAF Lat: -32.79 Lon: 151.84 Height: 9.0 m
Data from the previous 72 hours. | See also: Recent months at Williamtown
Date/Time
EST
Tmp

°C
App
Tmp
°C
Dew
Point
°C
Rel
Hum
%
Delta-T

°C
Wind Press
QNH
hPa
Press
MSL
hPa
Rain
since
9 am
mm
Dir
 
Spd
km/h
Gust
km/h
Spd
kts
Gust
kts
07/08:30am 15.0 14.2 12.8 87 1.2 NNW 9 11 5 6 1021.0 1020.9 0.0
07/08:00am 13.8 13.0 12.9 94 0.5 NW 9 13 5 7 1021.2 1021.1 0.0
07/07:30am 12.5 11.4 11.9 96 0.3 NW 9 11 5 6 1020.9 1020.8 0.0
07/07:19am 11.8 10.5 11.4 97 0.2 NW 9 13 5 7 1020.8 1020.7 0.0
07/07:10am 11.2 9.4 10.8 97 0.2 NW 11 11 6 6 1020.7 1020.6 0.0
07/07:04am 10.9 9.4 10.5 97 0.2 NW 9 11 5 6 1020.6 1020.5 0.0
07/07:00am 10.5 8.9 10.1 97 0.2 NW 9 9 5 5 1020.5 1020.4 0.0
07/06:30am 10.0 8.7 9.8 99 0.1 WNW 7 9 4 5 1020.0 1019.9 0.0
07/06:06am 9.7 8.4 9.3 97 0.2 W 6 6 3 3 1019.8 1019.7 0.0
07/06:03am 9.6 8.3 9.2 97 0.2 W 6 7 3 4 1019.8 1019.7 0.0
07/06:00am 9.5 8.2 9.1 97 0.2 W 6 7 3 4 1019.8 1019.7 0.0
07/05:30am 10.0 9.9 9.6 97 0.2 CALM 0 0 0 0 1019.5 1019.4 0.0
07/05:17am 10.4 10.5 10.0 97 0.2 CALM 0 0 0 0 1019.4 1019.3 0.0
07/05:00am 10.8 11.0 10.4 97 0.2 CALM 0 0 0 0 1019.3 1019.2 0.0
07/04:30am 11.1 10.0 10.7 97 0.2 NW 7 9 4 5 1019.4 1019.3 0.0
07/04:00am 10.8 9.2 10.2 96 0.3 NW 9 9 5 5 1019.3 1019.2 0.0
07/03:30am 10.3 10.3 9.7 96 0.3 CALM 0 0 0 0 1019.3 1019.2 0.0
07/03:00am 10.7 10.8 10.1 96 0.3 CALM 0 0 0 0 1019.3 1019.2 0.0
07/02:30am 11.2 10.3 10.8 97 0.2 NW 6 6 3 3 1019.4 1019.3 0.0
07/02:00am 11.2 10.3 10.8 97 0.2 NW 6 7 3 4 1019.5 1019.4 0.0
07/01:30am 11.3 10.2 10.5 95 0.4 NW 7 7 4 4 1019.8 1019.7 0.0
07/01:00am 12.4 11.7 12.0 97 0.2 NW 7 9 4 5 1019.6 1019.5 0.0
07/12:30am 12.0 12.4 11.4 96 0.3 CALM 0 0 0 0 1019.8 1019.7 0.0
07/12:00am 11.9 12.3 11.1 95 0.4 CALM 0 0 0 0 1019.6 1019.5 0.0
 
Date/Time
EST
Tmp

°C
App
Tmp
°C
Dew
Point
°C
Rel
Hum
%
Delta-T

°C
Wind Press
QNH
hPa
Press
MSL
hPa
Rain
since
9 am
mm
Dir
 
Spd
km/h
Gust
km/h
Spd
kts
Gust
kts
06/11:30pm 12.4 12.9 11.6 95 0.4 CALM 0 0 0 0 1019.7 1019.6 0.0
06/11:00pm 12.8 13.5 12.1 95 0.4 CALM 0 0 0 0 1019.6 1019.5 0.0
06/10:30pm 12.8 13.5 12.1 95 0.4 CALM 0 0 0 0 1019.7 1019.6 0.0
06/10:00pm 13.2 13.6 12.5 95 0.4 NW 2 6 1 3 1019.8 1019.7 0.0
06/09:30pm 13.3 14.1 12.7 96 0.3 CALM 0 0 0 0 1019.7 1019.6 0.0
06/09:00pm 14.3 15.4 13.6 96 0.4 CALM 0 0 0 0 1019.5 1019.4 0.0
06/08:30pm 14.2 14.4 13.1 93 0.6 SSE 4 6 2 3 1019.6 1019.5 0.0
06/08:00pm 16.4 16.7 15.0 91 0.8 ENE 7 7 4 4 1019.4 1019.3 0.0
06/07:30pm 16.5 16.7 14.8 90 1.0 ENE 7 11 4 6 1019.2 1019.1 0.0
06/07:00pm 15.9 16.1 14.1 89 1.0 E 6 7 3 4 1019.3 1019.2 0.0
06/06:30pm 17.1 18.6 14.7 86 1.4 CALM 0 0 0 0 1019.0 1018.9 0.0
06/06:00pm 18.1 18.5 14.8 81 1.9 E 6 9 3 5 1018.6 1018.5 0.0
06/05:30pm 19.4 19.3 14.9 75 2.6 ENE 9 9 5 5 1018.2 1018.1 0.0
06/05:00pm 20.4 19.9 14.8 70 3.3 E 11 15 6 8 1017.8 1017.7 0.0
06/04:30pm 21.2 19.8 13.3 60 4.5 E 13 17 7 9 1017.6 1017.5 0.0
06/04:00pm 21.7 19.7 12.7 56 5.1 ESE 15 19 8 10 1017.4 1017.3 0.0
06/03:30pm 22.1 19.8 13.0 56 5.2 SE 17 20 9 11 1017.3 1017.2 0.0
06/03:00pm 22.7 20.6 13.7 56 5.2 SE 17 20 9 11 1017.3 1017.2 0.0
06/02:30pm 23.1 20.6 13.4 54 5.6 SSE 19 24 10 13 1017.1 1017.0 0.0
06/02:00pm 25.2 23.5 11.1 41 7.9 SW 11 15 6 8 1017.1 1017.0 0.0
06/01:30pm 25.3 23.0 10.6 39 8.2 W 13 19 7 10 1017.4 1017.3 0.0
06/01:00pm 25.3 21.9 10.6 39 8.2 WNW 19 26 10 14 1017.7 1017.6 0.0
06/12:30pm 24.7 21.4 10.9 42 7.7 WNW 19 26 10 14 1018.1 1018.0 0.0
06/12:00pm 23.9 21.9 11.4 45 7.0 WNW 13 20 7 11 1018.5 1018.4 0.0
06/11:30am 22.8 20.9 11.7 49 6.2 W 13 20 7 11 1019.1 1019.0 0.0
06/11:00am 21.6 19.1 11.1 51 5.8 W 15 22 8 12 1019.5 1019.4 0.0
06/10:30am 20.6 18.6 11.5 56 5.0 NW 13 15 7 8 1019.9 1019.8 0.0
06/10:00am 19.5 17.0 11.0 58 4.6 NW 15 20 8 11 1020.0 1019.9 0.0
06/09:30am 18.3 15.5 11.3 63 3.8 NW 17 22 9 12 1020.1 1020.0 0.0
06/09:00am 16.6 13.8 11.2 70 2.9 NW 17 22 9 12 1020.0 1019.9 0.0
06/08:30am 15.2 13.3 11.7 79 1.9 NW 13 15 7 8 1019.9 1019.8 0.0
06/08:00am 13.7 12.5 11.6 87 1.1 NNW 9 13 5 7 1019.8 1019.7 0.0
06/07:30am 12.8 11.1 11.3 91 0.8 WNW 11 13 6 7 1019.3 1019.2 0.0
06/07:00am 12.2 10.6 11.4 95 0.4 WNW 11 15 6 8 1019.0 1018.9 0.0
06/06:30am 11.9 10.2 11.1 95 0.4 WNW 11 13 6 7 1018.6 1018.5 0.0
06/06:00am 11.5 10.1 10.9 96 0.3 WNW 9 11 5 6 1018.2 1018.1 0.0
06/05:30am 11.3 9.8 10.7 96 0.3 NW 9 9 5 5 1018.0 1017.9 0.0
06/05:00am 10.9 9.3 10.3 96 0.3 WNW 9 9 5 5 1018.0 1017.9 0.0
06/04:30am 10.8 11.0 10.4 97 0.2 CALM 0 0 0 0 1017.9 1017.8 0.0
06/04:00am 11.6 10.8 11.2 97 0.2 NW 6 7 3 4 1017.8 1017.7 0.0
06/03:30am 11.0 9.9 10.6 97 0.2 NW 7 9 4 5 1017.8 1017.7 0.0
06/03:00am 11.7 11.4 11.3 97 0.2 WNW 4 7 2 4 1017.9 1017.8 0.0
06/02:30am 11.4 11.6 10.6 95 0.4 CALM 0 0 0 0 1018.1 1018.0 0.0
06/02:00am 11.6 11.9 11.0 96 0.3 CALM 0 0 0 0 1018.0 1017.9 0.0
06/01:30am 12.8 13.5 12.1 95 0.4 CALM 0 0 0 0 1018.0 1017.9 0.0
06/01:00am 12.9 12.3 12.3 96 0.3 N 7 9 4 5 1017.9 1017.8 0.0
06/12:30am 12.3 11.5 11.7 96 0.3 WNW 7 9 4 5 1018.1 1018.0 0.0
06/12:00am 12.4 11.7 11.5 94 0.5 NW 6 7 3 4 1018.2 1018.1 0.0
 
Date/Time
EST
Tmp

°C
App
Tmp
°C
Dew
Point
°C
Rel
Hum
%
Delta-T

°C
Wind Press
QNH
hPa
Press
MSL
hPa
Rain
since
9 am
mm
Dir
 
Spd
km/h
Gust
km/h
Spd
kts
Gust
kts
05/11:30pm 13.6 13.4 12.9 95 0.4 NNE 6 7 3 4 1018.2 1018.1 0.0
05/11:00pm 13.1 13.7 11.8 92 0.7 CALM 0 0 0 0 1018.3 1018.2 0.0
05/10:30pm 14.5 15.5 13.2 92 0.7 CALM 0 0 0 0 1018.2 1018.1 0.0
05/10:00pm 15.3 15.3 13.5 89 1.0 ENE 6 9 3 5 1018.4 1018.3 0.0
05/09:30pm 14.7 15.7 13.1 90 0.9 CALM 0 0 0 0 1018.6 1018.5 0.0
05/09:00pm 15.1 15.1 13.7 91 0.8 N 6 7 3 4 1018.7 1018.6 0.0
05/08:30pm 15.9 17.2 14.1 89 1.0 CALM 0 0 0 0 1018.8 1018.7 0.0
05/08:00pm 14.7 14.4 13.3 91 0.8 N 7 7 4 4 1018.6 1018.5 0.0
05/07:30pm 17.3 17.5 14.7 85 1.5 NE 7 9 4 5 1018.5 1018.4 0.0
05/07:00pm 18.0 17.7 14.5 80 2.0 NE 9 11 5 6 1018.3 1018.2 0.0
05/06:30pm 18.1 18.1 14.1 77 2.3 ENE 7 7 4 4 1018.0 1017.9 0.0
05/06:00pm 17.9 17.8 14.0 78 2.2 SE 7 11 4 6 1017.9 1017.8 0.0
05/05:30pm 19.5 18.3 14.1 71 3.1 NE 13 17 7 9 1017.5 1017.4 0.0
05/05:00pm 20.5 18.7 13.3 63 4.1 ENE 15 19 8 10 1017.4 1017.3 0.0
05/04:30pm 21.4 20.5 14.8 66 3.9 ESE 13 17 7 9 1017.2 1017.1 0.0
05/04:00pm 22.4 20.9 14.2 59 4.8 E 15 19 8 10 1017.3 1017.2 0.0
05/03:30pm 22.7 20.3 13.7 56 5.2 E 19 24 10 13 1017.3 1017.2 0.0
05/03:00pm 23.8 21.6 13.3 51 6.1 E 17 24 9 13 1017.2 1017.1 0.0
05/02:30pm 24.1 23.3 13.0 50 6.4 E 9 15 5 8 1017.2 1017.1 0.0
05/02:00pm 24.8 23.4 10.8 41 7.8 NNW 9 15 5 8 1017.4 1017.3 0.0
05/01:30pm 24.6 23.2 11.0 42 7.6 NNW 9 15 5 8 1017.5 1017.4 0.0
05/01:00pm 24.0 22.3 11.3 45 7.1 NNW 11 17 6 9 1017.8 1017.7 0.0
05/12:30pm 24.2 22.0 10.9 43 7.4 WNW 13 20 7 11 1018.2 1018.1 0.0
05/12:00pm 23.3 21.5 10.8 45 6.9 NW 11 15 6 8 1018.8 1018.7 0.0
05/11:30am 22.9 21.0 11.7 49 6.3 WNW 13 20 7 11 1019.4 1019.3 0.0
05/11:00am 21.8 19.4 11.3 51 5.8 NW 15 19 8 10 1020.0 1019.9 0.0
05/10:30am 21.2 18.4 11.4 53 5.4 WNW 17 22 9 12 1020.4 1020.3 0.0
05/10:00am 20.0 17.1 11.0 56 4.9 WNW 17 20 9 11 1020.8 1020.7 0.0
05/09:30am 18.8 16.2 10.8 59 4.3 WNW 15 19 8 10 1020.9 1020.8 0.0
05/09:00am 17.4 14.4 10.7 65 3.6 NW 17 19 9 10 1021.1 1021.0 0.0
05/08:30am 16.4 13.4 10.8 69 3.0 NW 17 24 9 13 1021.1 1021.0 0.0
05/08:00am 15.2 12.2 10.6 74 2.4 NW 17 20 9 11 1020.8 1020.7 0.0
05/07:30am 14.5 11.5 10.5 77 2.1 NW 17 22 9 12 1020.6 1020.5 0.0
05/07:00am 12.9 10.5 10.2 84 1.4 NW 13 15 7 8 1020.1 1020.0 0.0
05/06:30am 11.8 9.3 9.8 87 1.0 NW 13 17 7 9 1019.9 1019.8 0.0
05/06:00am 12.2 9.4 10.0 86 1.1 NW 15 17 8 9 1019.5 1019.4 0.0
05/05:30am 11.8 9.4 10.0 89 0.9 NW 13 13 7 7 1019.4 1019.3 0.0
05/05:00am 11.8 9.4 10.0 89 0.9 NW 13 13 7 7 1019.1 1019.0 0.0
05/04:30am 12.9 10.5 10.2 84 1.4 NW 13 15 7 8 1018.8 1018.7 0.0
05/04:00am 12.9 10.2 10.4 85 1.3 NW 15 15 8 8 1018.5 1018.4 0.0
05/03:30am 12.5 10.6 10.4 87 1.1 NW 11 13 6 7 1018.2 1018.1 0.0
05/03:00am 12.9 10.7 10.8 87 1.1 NW 13 13 7 7 1018.2 1018.1 0.0
05/02:30am 13.2 11.4 10.7 85 1.3 NNW 11 13 6 7 1018.3 1018.2 0.0
05/02:00am 12.8 10.5 10.3 85 1.3 NW 13 15 7 8 1018.3 1018.2 0.0
05/01:30am 12.4 10.1 10.3 87 1.1 WNW 13 15 7 8 1018.4 1018.3 0.0
05/01:00am 12.5 11.5 10.4 87 1.1 W 6 7 3 4 1018.4 1018.3 0.0
05/12:30am 12.8 11.4 10.9 88 1.0 W 9 9 5 5 1018.4 1018.3 0.0
05/12:00am 14.9 13.9 11.1 78 2.0 N 7 9 4 5 1018.2 1018.1 0.0
 
Date/Time
EST
Tmp

°C
App
Tmp
°C
Dew
Point
°C
Rel
Hum
%
Delta-T

°C
Wind Press
QNH
hPa
Press
MSL
hPa
Rain
since
9 am
mm
Dir
 
Spd
km/h
Gust
km/h
Spd
kts
Gust
kts
04/11:30pm 15.0 13.6 11.0 77 2.1 NNW 9 11 5 6 1018.3 1018.2 0.0
04/11:00pm 13.8 13.1 11.3 85 1.3 WNW 6 7 3 4 1018.3 1018.2 0.0
04/10:30pm 16.4 15.1 11.2 71 2.8 N 9 9 5 5 1018.3 1018.2 0.0
04/10:00pm 16.6 15.3 11.2 70 2.9 N 9 11 5 6 1018.4 1018.3 0.0
04/09:30pm 17.2 16.1 11.9 71 2.9 N 9 13 5 7 1018.4 1018.3 0.0
04/09:00pm 17.0 16.4 12.3 74 2.6 N 7 11 4 6 1018.2 1018.1 0.0
04/08:30pm 17.8 16.8 12.2 70 3.1 NNE 9 13 5 7 1018.0 1017.9 0.0
04/08:00pm 17.9 17.1 12.9 72 2.8 NNE 9 11 5 6 1017.7 1017.6 0.0
04/07:30pm 17.9 17.2 13.3 74 2.6 NE 9 11 5 6 1017.3 1017.2 0.0
04/07:00pm 18.4 16.8 12.9 70 3.1 NE 13 15 7 8 1017.0 1016.9 0.0
04/06:30pm 18.0 17.4 12.2 69 3.2 NE 7 9 4 5 1016.5 1016.4 0.0
04/06:00pm 19.2 18.3 12.6 65 3.7 ENE 9 11 5 6 1015.9 1015.8 0.0
04/05:30pm 20.0 19.1 12.5 62 4.2 ENE 9 13 5 7 1015.4 1015.3 0.0
04/05:00pm 21.7 20.1 11.4 52 5.7 E 11 15 6 8 1015.0 1014.9 0.0
04/04:30pm 22.3 20.2 11.3 49 6.1 ESE 13 17 7 9 1014.7 1014.6 0.0
04/04:00pm 23.3 20.8 10.9 45 6.9 SSE 15 24 8 13 1014.6 1014.5 0.0
04/03:30pm 25.1 21.7 7.7 33 9.2 W 15 20 8 11 1014.4 1014.3 0.0
04/03:00pm 25.5 21.8 7.8 32 9.4 W 17 26 9 14 1014.3 1014.2 0.0
04/02:30pm 25.9 22.0 7.1 30 9.9 W 17 26 9 14 1014.2 1014.1 0.0
04/02:00pm 25.9 22.4 7.4 30 9.8 WNW 15 24 8 13 1014.2 1014.1 0.0
04/01:30pm 25.3 21.4 7.0 31 9.6 WNW 17 28 9 15 1014.3 1014.2 0.0
04/01:00pm 25.4 21.0 7.4 31 9.5 NW 20 30 11 16 1014.6 1014.5 0.0
04/12:30pm 25.1 20.2 6.9 31 9.5 NW 22 32 12 17 1014.9 1014.8 0.0
04/12:00pm 24.9 20.0 6.9 31 9.4 NW 22 32 12 17 1015.2 1015.1 0.0
04/11:30am 24.7 19.7 7.9 34 8.9 WNW 24 33 13 18 1015.6 1015.5 0.0
04/11:00am 23.6 18.5 7.8 36 8.3 WNW 24 33 13 18 1015.9 1015.8 0.0
04/10:30am 22.8 17.1 8.4 39 7.6 WNW 28 35 15 19 1016.1 1016.0 0.0
04/10:00am 22.0 16.3 8.5 42 7.1 NW 28 33 15 18 1016.3 1016.2 0.0
04/09:30am 21.4 16.0 9.4 46 6.4 WNW 28 37 15 20 1016.3 1016.2 0.0
04/09:00am 20.3 14.9 9.4 49 5.8 WNW 28 35 15 19 1016.3 1016.2 0.0

Latest Capital City Observations: Canberra | Sydney | Melbourne | Brisbane | Adelaide | Perth | Hobart | Darwin

Other Formats:

Comma delimited format used in spreadsheet applications
http://www.bom.gov.au/fwo/IDN60901/IDN60901.94776.axf

JavaScript Object Notation format (JSON) in row-major order
http://www.bom.gov.au/fwo/IDN60901/IDN60901.94776.json